Flight Track Log - Related Links

Times and Time Zones

All times are in EDT time to prevent confusion due to time zone crossing. See the GJS6221 flight status page for this flight to view local times or setup timezone preferences in your user account.

Time Position Orientation Groundspeed Altitude Reporting Facility
EDT Latitude Longitude Course Direction KTS MPH feet Rate Location/Type
Sun 12:23:45 PM 40.7500 -73.8333 33° Northeast 169 194 1,800  Level New York TRACON
Sun 12:25:26 PM 40.7756 -73.7503 68° East 187 215 6,300 2,683 Climbing Boston Center
Sun 12:26:26 PM 40.8306 -73.6853 42° Northeast 214 246 9,000 2,750 Climbing Boston Center
Sun 12:27:26 PM 40.9061 -73.6431 23° Northeast 252 290 11,800 2,600 Climbing Boston Center
Sun 12:28:26 PM 40.9731 -73.6031 24° Northeast 275 316 14,200 2,500 Climbing Boston Center
Sun 12:29:00 PM 41.2334 -73.4959 33° Northeast  Level FlightAware Approximate
Sun 12:29:26 PM 41.0633 -73.5522 23° Northeast 304 350 16,800  Level Boston Center
Sun 12:30:26 PM 41.1511 -73.5014 24° Northeast 330 380 18,300 1,550 Climbing Boston Center
Sun 12:31:26 PM 41.2392 -73.4503 24° Northeast 346 398 19,900 1,850 Climbing Boston Center
Sun 12:32:26 PM 41.3375 -73.3994 21° North 361 415 22,000 1,750 Climbing Boston Center
Sun 12:33:26 PM 41.4461 -73.3928 North 367 422 23,400 1,600 Climbing Boston Center
Sun 12:34:26 PM 41.5522 -73.3972 358° North 387 445 25,200 1,500 Climbing Boston Center
Sun 12:35:26 PM 41.6628 -73.3878 North 387 445 26,400 850 Climbing Boston Center
Sun 12:36:26 PM 41.7817 -73.3839 North 398 458 26,900 300 Climbing Boston Center
Sun 12:37:26 PM 41.9006 -73.3828 360° North 410 472 27,000 45 Climbing Boston Center
Sun 12:38:38 PM 42.0381 -73.3878 358° North 416 479 27,000  Level Boston Center
Sun 12:39:38 PM 42.1528 -73.3753 North 416 479 27,000  Level Boston Center
Sun 12:40:38 PM 42.2611 -73.3686 North 403 464 27,000  Level Boston Center
Sun 12:41:38 PM 42.3675 -73.3617 North 390 449 27,000 -50 Level Boston Center
Sun 12:42:38 PM 42.4742 -73.3183 17° North 384 442 26,900 -50 Descending Boston Center
Sun 12:43:38 PM 42.5744 -73.2719 19° North 384 442 26,900 50 Level Boston Center
Sun 12:44:38 PM 42.6808 -73.2619 North 379 436 27,000 50 Climbing Boston Center
Sun 12:45:38 PM 42.7683 -73.2575 North 379 436 27,000  Level Boston Center
Sun 12:46:38 PM 42.9019 -73.2536 North 391 450 27,000  Level Boston Center
Sun 12:47:38 PM 43.0144 -73.2436 North 397 457 27,000 -364 Level Boston Center
Sun 12:48:50 PM 43.1500 -73.2369 North 403 464 26,200 -1,091 Descending Boston Center
Sun 12:49:50 PM 43.2647 -73.2328 North 403 464 24,600 -1,550 Descending Boston Center
Sun 12:50:50 PM 43.3731 -73.2256 North 403 464 23,100 -2,000 Descending Boston Center
Sun 12:51:50 PM 43.4900 -73.1756 17° North 397 457 20,600 -2,200 Descending Boston Center
Sun 12:52:50 PM 43.5906 -73.1194 22° Northeast 388 447 18,700 -1,900 Descending Boston Center
Sun 12:53:50 PM 43.6886 -73.0575 25° Northeast 388 447 16,800 -1,900 Descending Boston Center
Sun 12:54:50 PM 43.7972 -73.0356 North 388 447 14,900 -1,950 Descending Boston Center
Sun 12:55:50 PM 43.9014 -73.0567 352° North 383 441 12,900 -1,600 Descending Boston Center
Sun 12:56:50 PM 43.9950 -73.0836 348° North 383 441 11,700 -1,050 Descending Boston Center
Sun 12:57:50 PM 44.0867 -73.0933 356° North 350 403 10,800 -1,200 Descending Boston Center
Sun 12:58:50 PM 44.1678 -73.1058 354° North 309 356 9,300 -1,600 Descending Boston Center
Sun 12:59:50 PM 44.2447 -73.1183 353° North 285 328 7,600 -1,591 Descending Boston Center
Sun 01:01:02 PM 44.3133 -73.1625 335° Northwest 267 307 5,800 -1,667 Descending Boston Center
Sun 01:02:14 PM 44.3983 -73.2275 331° Northwest 267 307 3,600 -1,682 Descending Boston Center
Sun 01:03:14 PM 44.4583 -73.2719 332° Northwest 251 289 2,100 -1,200 Descending Boston Center
Sun 01:04:14 PM 44.5003 -73.2200 41° Northeast 163 188 1,200 -800 Descending Boston Center
Sun 01:05:14 PM 44.4839 -73.1733 116° Southeast 96 110 500 -450 Descending Boston Center
Sun 01:06:14 PM 44.4800 -73.1383 99° East 86 99 300 -100 Descending Boston Center
Sun 01:07:14 PM 44.4717 -73.1267 135° Southeast 58 67 300  Level Boston Center

Login

Don't have an account? Register now (free) for customized features, flight alerts, and more!